Yountville, CA

3:49 AM PST on December 19, 2014 (GMT -0800)
Yountville Deli (Washington St) | Change Station
CLOSE
Current Station
Personal Weather Station
Location: Yountville, CA
Elevation: 98 ft
Nearby Weather Stations

Elev 98 ft 38.40 °N, 122.36 °W | Updated 21 seconds ago

Overcast
Overcast
52.5 °F
Feels Like 52.5 °F
N
6.9
Wind Variable Wind from SSE
Gusts 6.9 mph

Today
High -- | Low -- °F
--% Chance of Precip.
Yesterday
High -- | Low -- °F
Precip. -- in
7:21 AM 4:51 PM
Waning Crescent, 8% visible
Pressure 30.14 in
Visibility 2.0 miles
Clouds Overcast 1900 ft
Dew Point 51 °F
Humidity 94%
Rainfall 0.11 in
Snow Depth Not available.
UV 0 out of 12
Pollen 1.80 out of 12
Air Quality Not available.
Flu Activity Not available.
SPECI KAPC 191138Z AUTO 17004KT 2SM BR OVC019 12/11 A3014 RMK AO2 P0002 T01170106 TSNO

More Conditions Fewer Conditions

Pressure 30.14 in
Visibility 2.0 miles
Clouds Overcast 1900 ft
Dew Point 51 °F
Humidity 94%
Rainfall 0.11 in
Snow Depth Not available.
UV 0 out of 12
Pollen 1.80 out of 12
Air Quality Not available.
Flu Activity Not available.
SPECI KAPC 191138Z AUTO 17004KT 2SM BR OVC019 12/11 A3014 RMK AO2 P0002 T01170106 TSNO

More Conditions Fewer Conditions

10-Day Weather Forecast

Almanac

Astronomy

Dec. 19, 2014 Rise Set
Actual Time
Civil Twilight
Nautical Twilight
Astronomical Twilight
Moon
Length of Visible Light
Length of Day
Tomorrow will be .
, % of the Moon is Illuminated

Today's Extremes

State Highs State Lows

Community

WunderPhotos

Upload Photos

1,778,966 photos uploaded!

WunderBlogs® & News

Nearby

Air Quality

  Air Quality AQ Index Pollutant
Not available.

Snow Depth

Station Depth Elevation

Earthquake Activity

City Distance Mag. Time & Date
Minimum magnitude displayed is 2.5.

Coastal Water Temperatures

Place Temperature

Nearby Weather Stations